sensor_id;sensor_type;location;lat;lon;timestamp;P1;durP1;ratioP1;P2;durP2;ratioP2
16878;SDS011;8556;52.218;9.884;2022-12-07T00:01:16;30.80;;;16.57;;
16878;SDS011;8556;52.218;9.884;2022-12-07T00:03:45;29.67;;;15.90;;
16878;SDS011;8556;52.218;9.884;2022-12-07T00:06:15;28.00;;;15.63;;
16878;SDS011;8556;52.218;9.884;2022-12-07T00:08:43;30.67;;;15.37;;
16878;SDS011;8556;52.218;9.884;2022-12-07T00:11:11;30.60;;;16.57;;
16878;SDS011;8556;52.218;9.884;2022-12-07T00:13:41;29.80;;;17.27;;
16878;SDS011;8556;52.218;9.884;2022-12-07T00:16:08;32.03;;;15.63;;
16878;SDS011;8556;52.218;9.884;2022-12-07T00:18:37;31.80;;;17.37;;
16878;SDS011;8556;52.218;9.884;2022-12-07T00:21:05;31.17;;;17.53;;
16878;SDS011;8556;52.218;9.884;2022-12-07T00:23:34;30.50;;;16.27;;
16878;SDS011;8556;52.218;9.884;2022-12-07T00:26:04;30.73;;;16.50;;
16878;SDS011;8556;52.218;9.884;2022-12-07T00:28:32;35.30;;;17.03;;
16878;SDS011;8556;52.218;9.884;2022-12-07T00:31:00;29.63;;;16.80;;
16878;SDS011;8556;52.218;9.884;2022-12-07T00:33:28;29.90;;;16.60;;
16878;SDS011;8556;52.218;9.884;2022-12-07T00:35:55;31.40;;;17.40;;
16878;SDS011;8556;52.218;9.884;2022-12-07T00:38:22;27.77;;;15.83;;
16878;SDS011;8556;52.218;9.884;2022-12-07T00:40:54;28.20;;;15.23;;
16878;SDS011;8556;52.218;9.884;2022-12-07T00:43:22;29.47;;;17.23;;
16878;SDS011;8556;52.218;9.884;2022-12-07T00:45:49;27.80;;;15.37;;
16878;SDS011;8556;52.218;9.884;2022-12-07T00:48:16;28.00;;;16.07;;
16878;SDS011;8556;52.218;9.884;2022-12-07T00:50:43;28.40;;;15.90;;
16878;SDS011;8556;52.218;9.884;2022-12-07T00:53:10;29.40;;;16.47;;
16878;SDS011;8556;52.218;9.884;2022-12-07T00:55:37;29.50;;;15.60;;
16878;SDS011;8556;52.218;9.884;2022-12-07T00:58:05;28.53;;;15.47;;
16878;SDS011;8556;52.218;9.884;2022-12-07T01:00:33;29.87;;;16.63;;
16878;SDS011;8556;52.218;9.884;2022-12-07T01:03:01;27.23;;;16.17;;
16878;SDS011;8556;52.218;9.884;2022-12-07T01:05:28;28.13;;;16.00;;
16878;SDS011;8556;52.218;9.884;2022-12-07T01:07:55;28.53;;;16.87;;
16878;SDS011;8556;52.218;9.884;2022-12-07T01:10:22;27.10;;;14.87;;
16878;SDS011;8556;52.218;9.884;2022-12-07T01:12:49;28.13;;;16.03;;
16878;SDS011;8556;52.218;9.884;2022-12-07T01:15:17;28.23;;;15.67;;
16878;SDS011;8556;52.218;9.884;2022-12-07T01:17:44;26.77;;;15.13;;
16878;SDS011;8556;52.218;9.884;2022-12-07T01:20:11;27.23;;;13.93;;
16878;SDS011;8556;52.218;9.884;2022-12-07T01:22:39;28.53;;;15.90;;
16878;SDS011;8556;52.218;9.884;2022-12-07T01:25:07;25.70;;;14.63;;
16878;SDS011;8556;52.218;9.884;2022-12-07T01:27:35;24.37;;;14.27;;
16878;SDS011;8556;52.218;9.884;2022-12-07T01:30:02;24.43;;;14.70;;
16878;SDS011;8556;52.218;9.884;2022-12-07T01:32:33;25.80;;;14.30;;
16878;SDS011;8556;52.218;9.884;2022-12-07T01:35:00;24.97;;;14.53;;
16878;SDS011;8556;52.218;9.884;2022-12-07T01:37:26;25.47;;;15.97;;
16878;SDS011;8556;52.218;9.884;2022-12-07T01:39:53;24.63;;;14.23;;
16878;SDS011;8556;52.218;9.884;2022-12-07T01:42:20;24.40;;;13.80;;
16878;SDS011;8556;52.218;9.884;2022-12-07T01:48:01;26.67;;;13.93;;
16878;SDS011;8556;52.218;9.884;2022-12-07T01:50:28;24.67;;;13.77;;
16878;SDS011;8556;52.218;9.884;2022-12-07T01:52:57;21.93;;;12.90;;
16878;SDS011;8556;52.218;9.884;2022-12-07T01:55:27;22.47;;;13.33;;
16878;SDS011;8556;52.218;9.884;2022-12-07T01:57:55;20.33;;;13.80;;
16878;SDS011;8556;52.218;9.884;2022-12-07T02:00:22;23.80;;;14.13;;
16878;SDS011;8556;52.218;9.884;2022-12-07T02:02:51;21.90;;;13.23;;
16878;SDS011;8556;52.218;9.884;2022-12-07T02:05:23;22.70;;;12.70;;
16878;SDS011;8556;52.218;9.884;2022-12-07T02:07:51;23.00;;;14.40;;
16878;SDS011;8556;52.218;9.884;2022-12-07T02:10:21;29.00;;;14.87;;
16878;SDS011;8556;52.218;9.884;2022-12-07T02:12:50;22.03;;;13.00;;
16878;SDS011;8556;52.218;9.884;2022-12-07T02:15:22;23.57;;;14.33;;
16878;SDS011;8556;52.218;9.884;2022-12-07T02:17:56;23.03;;;13.77;;
16878;SDS011;8556;52.218;9.884;2022-12-07T02:20:33;24.43;;;15.33;;
16878;SDS011;8556;52.218;9.884;2022-12-07T02:29:12;23.53;;;14.07;;
16878;SDS011;8556;52.218;9.884;2022-12-07T02:31:45;24.53;;;14.47;;
16878;SDS011;8556;52.218;9.884;2022-12-07T02:34:18;22.53;;;14.07;;
16878;SDS011;8556;52.218;9.884;2022-12-07T02:36:51;24.83;;;14.73;;
16878;SDS011;8556;52.218;9.884;2022-12-07T02:39:23;23.80;;;13.77;;
16878;SDS011;8556;52.218;9.884;2022-12-07T02:41:55;24.70;;;14.10;;
16878;SDS011;8556;52.218;9.884;2022-12-07T02:44:27;23.83;;;14.17;;
16878;SDS011;8556;52.218;9.884;2022-12-07T02:46:57;23.70;;;13.57;;
16878;SDS011;8556;52.218;9.884;2022-12-07T02:49:27;24.70;;;13.10;;
16878;SDS011;8556;52.218;9.884;2022-12-07T02:51:56;23.80;;;14.07;;
16878;SDS011;8556;52.218;9.884;2022-12-07T02:54:22;24.37;;;14.30;;
16878;SDS011;8556;52.218;9.884;2022-12-07T02:56:50;23.37;;;12.93;;
16878;SDS011;8556;52.218;9.884;2022-12-07T02:59:25;21.70;;;12.87;;
16878;SDS011;8556;52.218;9.884;2022-12-07T03:02:03;24.10;;;14.60;;
16878;SDS011;8556;52.218;9.884;2022-12-07T03:04:43;23.53;;;13.17;;
16878;SDS011;8556;52.218;9.884;2022-12-07T03:07:18;26.63;;;14.90;;
16878;SDS011;8556;52.218;9.884;2022-12-07T03:09:53;22.57;;;13.37;;
16878;SDS011;8556;52.218;9.884;2022-12-07T03:12:28;23.03;;;13.60;;
16878;SDS011;8556;52.218;9.884;2022-12-07T03:15:03;23.73;;;13.43;;
16878;SDS011;8556;52.218;9.884;2022-12-07T03:17:35;25.13;;;14.83;;
16878;SDS011;8556;52.218;9.884;2022-12-07T03:20:07;23.67;;;14.50;;
16878;SDS011;8556;52.218;9.884;2022-12-07T03:22:37;25.13;;;14.43;;
16878;SDS011;8556;52.218;9.884;2022-12-07T03:25:06;24.07;;;14.57;;
16878;SDS011;8556;52.218;9.884;2022-12-07T03:27:37;24.57;;;13.83;;
16878;SDS011;8556;52.218;9.884;2022-12-07T03:30:10;25.67;;;13.80;;
16878;SDS011;8556;52.218;9.884;2022-12-07T03:32:41;22.60;;;13.67;;
16878;SDS011;8556;52.218;9.884;2022-12-07T03:35:12;23.00;;;12.73;;
16878;SDS011;8556;52.218;9.884;2022-12-07T03:37:43;24.77;;;13.53;;
16878;SDS011;8556;52.218;9.884;2022-12-07T03:40:15;20.53;;;11.97;;
16878;SDS011;8556;52.218;9.884;2022-12-07T03:42:48;21.60;;;13.00;;
16878;SDS011;8556;52.218;9.884;2022-12-07T03:45:18;22.37;;;12.57;;
16878;SDS011;8556;52.218;9.884;2022-12-07T03:47:50;21.10;;;12.50;;
16878;SDS011;8556;52.218;9.884;2022-12-07T03:50:25;22.33;;;12.83;;
16878;SDS011;8556;52.218;9.884;2022-12-07T03:52:58;22.57;;;12.17;;
16878;SDS011;8556;52.218;9.884;2022-12-07T03:55:31;23.40;;;12.93;;
16878;SDS011;8556;52.218;9.884;2022-12-07T03:58:01;19.47;;;11.50;;
16878;SDS011;8556;52.218;9.884;2022-12-07T04:00:32;18.40;;;10.37;;
16878;SDS011;8556;52.218;9.884;2022-12-07T04:02:59;22.43;;;11.43;;
16878;SDS011;8556;52.218;9.884;2022-12-07T04:05:26;21.23;;;11.53;;
16878;SDS011;8556;52.218;9.884;2022-12-07T04:07:53;20.60;;;10.90;;
16878;SDS011;8556;52.218;9.884;2022-12-07T04:10:20;18.77;;;10.30;;
16878;SDS011;8556;52.218;9.884;2022-12-07T04:12:47;18.60;;;10.20;;
16878;SDS011;8556;52.218;9.884;2022-12-07T04:15:14;18.20;;;10.00;;
16878;SDS011;8556;52.218;9.884;2022-12-07T04:17:42;19.13;;;10.27;;
16878;SDS011;8556;52.218;9.884;2022-12-07T04:20:10;17.60;;;9.73;;
16878;SDS011;8556;52.218;9.884;2022-12-07T04:22:37;17.40;;;9.37;;
16878;SDS011;8556;52.218;9.884;2022-12-07T04:25:05;17.00;;;9.93;;
16878;SDS011;8556;52.218;9.884;2022-12-07T04:27:32;16.87;;;9.40;;
16878;SDS011;8556;52.218;9.884;2022-12-07T04:29:59;18.53;;;9.27;;
16878;SDS011;8556;52.218;9.884;2022-12-07T04:32:26;16.13;;;8.93;;
16878;SDS011;8556;52.218;9.884;2022-12-07T04:34:54;17.17;;;8.90;;
16878;SDS011;8556;52.218;9.884;2022-12-07T04:37:21;15.53;;;8.57;;
16878;SDS011;8556;52.218;9.884;2022-12-07T04:39:48;15.27;;;8.00;;
16878;SDS011;8556;52.218;9.884;2022-12-07T04:42:15;14.17;;;7.80;;
16878;SDS011;8556;52.218;9.884;2022-12-07T04:44:42;19.97;;;8.50;;
16878;SDS011;8556;52.218;9.884;2022-12-07T04:47:09;18.33;;;8.33;;
16878;SDS011;8556;52.218;9.884;2022-12-07T04:49:36;13.93;;;7.93;;
16878;SDS011;8556;52.218;9.884;2022-12-07T04:52:04;16.50;;;7.90;;
16878;SDS011;8556;52.218;9.884;2022-12-07T04:54:31;15.47;;;7.57;;
16878;SDS011;8556;52.218;9.884;2022-12-07T04:56:58;15.10;;;7.60;;
16878;SDS011;8556;52.218;9.884;2022-12-07T04:59:25;15.23;;;8.63;;
16878;SDS011;8556;52.218;9.884;2022-12-07T05:01:51;17.07;;;9.90;;
16878;SDS011;8556;52.218;9.884;2022-12-07T05:04:18;16.87;;;8.43;;
16878;SDS011;8556;52.218;9.884;2022-12-07T05:06:45;16.23;;;8.23;;
16878;SDS011;8556;52.218;9.884;2022-12-07T05:09:13;14.70;;;7.93;;
16878;SDS011;8556;52.218;9.884;2022-12-07T05:11:40;15.40;;;8.53;;
16878;SDS011;8556;52.218;9.884;2022-12-07T05:14:09;16.13;;;8.00;;
16878;SDS011;8556;52.218;9.884;2022-12-07T05:16:38;16.70;;;8.87;;
16878;SDS011;8556;52.218;9.884;2022-12-07T05:19:06;19.67;;;9.33;;
16878;SDS011;8556;52.218;9.884;2022-12-07T05:21:33;19.10;;;8.43;;
16878;SDS011;8556;52.218;9.884;2022-12-07T05:24:01;14.13;;;7.30;;
16878;SDS011;8556;52.218;9.884;2022-12-07T05:26:29;16.73;;;7.87;;
16878;SDS011;8556;52.218;9.884;2022-12-07T05:28:56;17.40;;;8.97;;
16878;SDS011;8556;52.218;9.884;2022-12-07T05:31:24;16.90;;;8.27;;
16878;SDS011;8556;52.218;9.884;2022-12-07T05:33:52;18.43;;;8.63;;
16878;SDS011;8556;52.218;9.884;2022-12-07T05:36:19;16.57;;;7.97;;
16878;SDS011;8556;52.218;9.884;2022-12-07T05:38:46;20.20;;;8.87;;
16878;SDS011;8556;52.218;9.884;2022-12-07T05:41:17;18.10;;;8.83;;
16878;SDS011;8556;52.218;9.884;2022-12-07T05:44:03;21.70;;;9.10;;
16878;SDS011;8556;52.218;9.884;2022-12-07T05:46:34;20.13;;;8.63;;
16878;SDS011;8556;52.218;9.884;2022-12-07T05:49:01;17.50;;;8.93;;
16878;SDS011;8556;52.218;9.884;2022-12-07T05:51:28;18.10;;;8.60;;
16878;SDS011;8556;52.218;9.884;2022-12-07T05:53:55;17.73;;;8.37;;
16878;SDS011;8556;52.218;9.884;2022-12-07T05:56:22;15.77;;;7.90;;
16878;SDS011;8556;52.218;9.884;2022-12-07T05:58:49;17.70;;;8.37;;
16878;SDS011;8556;52.218;9.884;2022-12-07T06:01:35;15.43;;;8.10;;
16878;SDS011;8556;52.218;9.884;2022-12-07T06:04:02;17.73;;;8.93;;
16878;SDS011;8556;52.218;9.884;2022-12-07T06:06:29;19.07;;;10.83;;
16878;SDS011;8556;52.218;9.884;2022-12-07T06:08:55;15.70;;;8.53;;
16878;SDS011;8556;52.218;9.884;2022-12-07T06:11:22;16.27;;;8.50;;
16878;SDS011;8556;52.218;9.884;2022-12-07T06:14:07;17.40;;;7.93;;
16878;SDS011;8556;52.218;9.884;2022-12-07T06:16:35;16.97;;;8.77;;
16878;SDS011;8556;52.218;9.884;2022-12-07T06:19:02;15.93;;;8.53;;
16878;SDS011;8556;52.218;9.884;2022-12-07T06:21:29;17.10;;;8.17;;
16878;SDS011;8556;52.218;9.884;2022-12-07T06:23:55;13.13;;;7.60;;
16878;SDS011;8556;52.218;9.884;2022-12-07T06:26:22;15.63;;;7.10;;
16878;SDS011;8556;52.218;9.884;2022-12-07T06:28:50;13.07;;;7.17;;
16878;SDS011;8556;52.218;9.884;2022-12-07T06:31:16;13.23;;;6.37;;
16878;SDS011;8556;52.218;9.884;2022-12-07T06:33:45;9.77;;;5.57;;
16878;SDS011;8556;52.218;9.884;2022-12-07T06:36:12;12.77;;;5.77;;
16878;SDS011;8556;52.218;9.884;2022-12-07T06:38:39;13.00;;;6.17;;
16878;SDS011;8556;52.218;9.884;2022-12-07T06:41:06;9.27;;;5.53;;
16878;SDS011;8556;52.218;9.884;2022-12-07T06:43:33;13.13;;;5.23;;
16878;SDS011;8556;52.218;9.884;2022-12-07T06:46:00;10.80;;;5.60;;
16878;SDS011;8556;52.218;9.884;2022-12-07T06:48:27;15.10;;;7.57;;
16878;SDS011;8556;52.218;9.884;2022-12-07T06:50:55;10.70;;;5.77;;
16878;SDS011;8556;52.218;9.884;2022-12-07T06:53:22;20.33;;;6.70;;
16878;SDS011;8556;52.218;9.884;2022-12-07T06:55:49;11.50;;;5.60;;
16878;SDS011;8556;52.218;9.884;2022-12-07T06:58:16;9.03;;;5.03;;
16878;SDS011;8556;52.218;9.884;2022-12-07T07:00:43;8.60;;;5.23;;
16878;SDS011;8556;52.218;9.884;2022-12-07T07:03:10;9.53;;;5.70;;
16878;SDS011;8556;52.218;9.884;2022-12-07T07:05:37;11.43;;;5.60;;
16878;SDS011;8556;52.218;9.884;2022-12-07T07:08:06;10.90;;;5.00;;
16878;SDS011;8556;52.218;9.884;2022-12-07T07:10:33;10.40;;;5.20;;
16878;SDS011;8556;52.218;9.884;2022-12-07T07:13:00;11.00;;;5.37;;
16878;SDS011;8556;52.218;9.884;2022-12-07T07:15:27;7.13;;;4.97;;
16878;SDS011;8556;52.218;9.884;2022-12-07T07:17:54;8.50;;;4.93;;
16878;SDS011;8556;52.218;9.884;2022-12-07T07:20:21;11.23;;;5.10;;
16878;SDS011;8556;52.218;9.884;2022-12-07T07:22:48;11.93;;;4.97;;
16878;SDS011;8556;52.218;9.884;2022-12-07T07:25:16;8.80;;;4.93;;
16878;SDS011;8556;52.218;9.884;2022-12-07T07:27:43;10.00;;;5.33;;
16878;SDS011;8556;52.218;9.884;2022-12-07T07:30:10;7.93;;;4.60;;
16878;SDS011;8556;52.218;9.884;2022-12-07T07:32:38;9.30;;;4.70;;
16878;SDS011;8556;52.218;9.884;2022-12-07T07:35:05;7.97;;;4.53;;
16878;SDS011;8556;52.218;9.884;2022-12-07T07:37:32;8.20;;;4.03;;
16878;SDS011;8556;52.218;9.884;2022-12-07T07:39:59;8.37;;;4.50;;
16878;SDS011;8556;52.218;9.884;2022-12-07T07:42:27;7.50;;;3.77;;
16878;SDS011;8556;52.218;9.884;2022-12-07T07:44:54;8.40;;;4.13;;
16878;SDS011;8556;52.218;9.884;2022-12-07T07:47:21;6.13;;;3.43;;
16878;SDS011;8556;52.218;9.884;2022-12-07T07:49:48;6.03;;;4.13;;
16878;SDS011;8556;52.218;9.884;2022-12-07T07:52:14;9.47;;;4.00;;
16878;SDS011;8556;52.218;9.884;2022-12-07T07:54:41;7.63;;;3.93;;
16878;SDS011;8556;52.218;9.884;2022-12-07T07:57:08;10.73;;;3.60;;
16878;SDS011;8556;52.218;9.884;2022-12-07T07:59:36;5.27;;;3.00;;
16878;SDS011;8556;52.218;9.884;2022-12-07T08:02:03;6.40;;;3.27;;
16878;SDS011;8556;52.218;9.884;2022-12-07T08:04:30;4.80;;;2.90;;
16878;SDS011;8556;52.218;9.884;2022-12-07T08:06:57;7.27;;;2.70;;
16878;SDS011;8556;52.218;9.884;2022-12-07T08:09:23;6.33;;;3.03;;
16878;SDS011;8556;52.218;9.884;2022-12-07T08:11:50;3.37;;;2.50;;
16878;SDS011;8556;52.218;9.884;2022-12-07T08:14:17;6.07;;;2.83;;
16878;SDS011;8556;52.218;9.884;2022-12-07T08:16:46;3.83;;;2.30;;
16878;SDS011;8556;52.218;9.884;2022-12-07T08:19:12;4.03;;;2.27;;
16878;SDS011;8556;52.218;9.884;2022-12-07T08:21:39;4.77;;;2.40;;
16878;SDS011;8556;52.218;9.884;2022-12-07T08:24:06;5.10;;;2.70;;
16878;SDS011;8556;52.218;9.884;2022-12-07T08:26:33;7.53;;;2.70;;
16878;SDS011;8556;52.218;9.884;2022-12-07T08:29:01;5.43;;;2.50;;
16878;SDS011;8556;52.218;9.884;2022-12-07T08:31:28;6.60;;;4.10;;
16878;SDS011;8556;52.218;9.884;2022-12-07T08:33:56;5.70;;;2.23;;
16878;SDS011;8556;52.218;9.884;2022-12-07T08:36:23;6.30;;;2.20;;
16878;SDS011;8556;52.218;9.884;2022-12-07T08:38:50;4.80;;;2.03;;
16878;SDS011;8556;52.218;9.884;2022-12-07T08:41:17;4.23;;;2.20;;
16878;SDS011;8556;52.218;9.884;2022-12-07T08:43:44;5.03;;;1.73;;
16878;SDS011;8556;52.218;9.884;2022-12-07T08:46:13;7.73;;;2.97;;
16878;SDS011;8556;52.218;9.884;2022-12-07T08:48:44;5.40;;;2.00;;
16878;SDS011;8556;52.218;9.884;2022-12-07T08:51:15;2.07;;;1.60;;
16878;SDS011;8556;52.218;9.884;2022-12-07T08:53:42;8.43;;;2.43;;
16878;SDS011;8556;52.218;9.884;2022-12-07T08:56:10;3.77;;;2.30;;
16878;SDS011;8556;52.218;9.884;2022-12-07T08:58:37;9.00;;;4.47;;
16878;SDS011;8556;52.218;9.884;2022-12-07T09:01:05;9.70;;;2.97;;
16878;SDS011;8556;52.218;9.884;2022-12-07T09:03:32;5.60;;;2.47;;
16878;SDS011;8556;52.218;9.884;2022-12-07T09:05:59;4.77;;;2.40;;
16878;SDS011;8556;52.218;9.884;2022-12-07T09:08:28;10.30;;;5.00;;
16878;SDS011;8556;52.218;9.884;2022-12-07T09:10:58;5.37;;;2.77;;
16878;SDS011;8556;52.218;9.884;2022-12-07T09:13:25;4.83;;;2.50;;
16878;SDS011;8556;52.218;9.884;2022-12-07T09:15:52;7.63;;;2.80;;
16878;SDS011;8556;52.218;9.884;2022-12-07T09:18:19;9.43;;;4.63;;
16878;SDS011;8556;52.218;9.884;2022-12-07T09:20:45;4.53;;;2.47;;
16878;SDS011;8556;52.218;9.884;2022-12-07T09:23:12;5.23;;;3.07;;
16878;SDS011;8556;52.218;9.884;2022-12-07T09:25:40;4.40;;;2.80;;
16878;SDS011;8556;52.218;9.884;2022-12-07T09:28:07;7.87;;;3.23;;
16878;SDS011;8556;52.218;9.884;2022-12-07T09:30:34;8.07;;;3.07;;
16878;SDS011;8556;52.218;9.884;2022-12-07T09:33:01;4.20;;;2.50;;
16878;SDS011;8556;52.218;9.884;2022-12-07T09:35:28;4.80;;;3.07;;
16878;SDS011;8556;52.218;9.884;2022-12-07T09:37:55;7.43;;;3.50;;
16878;SDS011;8556;52.218;9.884;2022-12-07T09:40:22;4.83;;;2.23;;
16878;SDS011;8556;52.218;9.884;2022-12-07T09:42:52;4.03;;;2.00;;
16878;SDS011;8556;52.218;9.884;2022-12-07T09:45:21;6.80;;;2.27;;
16878;SDS011;8556;52.218;9.884;2022-12-07T09:47:50;5.70;;;2.03;;
16878;SDS011;8556;52.218;9.884;2022-12-07T09:50:19;6.77;;;1.67;;
16878;SDS011;8556;52.218;9.884;2022-12-07T09:52:49;3.43;;;1.70;;
16878;SDS011;8556;52.218;9.884;2022-12-07T09:55:19;1.97;;;1.73;;
16878;SDS011;8556;52.218;9.884;2022-12-07T09:57:49;1.97;;;1.83;;
16878;SDS011;8556;52.218;9.884;2022-12-07T10:00:19;5.07;;;2.40;;
16878;SDS011;8556;52.218;9.884;2022-12-07T10:02:48;3.37;;;2.43;;
16878;SDS011;8556;52.218;9.884;2022-12-07T10:05:18;2.53;;;1.73;;
16878;SDS011;8556;52.218;9.884;2022-12-07T10:07:49;3.27;;;1.77;;
16878;SDS011;8556;52.218;9.884;2022-12-07T10:10:18;3.73;;;1.97;;
16878;SDS011;8556;52.218;9.884;2022-12-07T10:12:52;4.17;;;2.10;;
16878;SDS011;8556;52.218;9.884;2022-12-07T10:15:23;4.93;;;1.77;;
16878;SDS011;8556;52.218;9.884;2022-12-07T10:18:14;3.13;;;1.40;;
16878;SDS011;8556;52.218;9.884;2022-12-07T10:20:44;2.03;;;1.73;;
16878;SDS011;8556;52.218;9.884;2022-12-07T10:23:13;3.73;;;2.57;;
16878;SDS011;8556;52.218;9.884;2022-12-07T10:25:41;4.10;;;2.00;;
16878;SDS011;8556;52.218;9.884;2022-12-07T10:28:15;4.40;;;2.40;;
16878;SDS011;8556;52.218;9.884;2022-12-07T10:30:49;3.27;;;2.00;;
16878;SDS011;8556;52.218;9.884;2022-12-07T10:33:28;6.60;;;2.30;;
16878;SDS011;8556;52.218;9.884;2022-12-07T10:36:01;4.17;;;1.77;;
16878;SDS011;8556;52.218;9.884;2022-12-07T10:38:44;2.67;;;2.30;;
16878;SDS011;8556;52.218;9.884;2022-12-07T10:41:12;3.70;;;2.10;;
16878;SDS011;8556;52.218;9.884;2022-12-07T10:43:46;6.43;;;2.80;;
16878;SDS011;8556;52.218;9.884;2022-12-07T10:49:33;2.37;;;1.70;;
16878;SDS011;8556;52.218;9.884;2022-12-07T10:55:19;4.73;;;2.27;;
16878;SDS011;8556;52.218;9.884;2022-12-07T11:00:52;4.97;;;2.50;;
16878;SDS011;8556;52.218;9.884;2022-12-07T11:03:30;7.00;;;2.83;;
16878;SDS011;8556;52.218;9.884;2022-12-07T11:06:17;6.27;;;3.60;;
16878;SDS011;8556;52.218;9.884;2022-12-07T11:08:59;3.83;;;2.07;;
16878;SDS011;8556;52.218;9.884;2022-12-07T11:11:33;3.50;;;1.80;;
16878;SDS011;8556;52.218;9.884;2022-12-07T11:14:05;4.50;;;1.70;;
16878;SDS011;8556;52.218;9.884;2022-12-07T11:16:52;4.87;;;1.90;;
16878;SDS011;8556;52.218;9.884;2022-12-07T11:19:42;6.77;;;2.43;;
16878;SDS011;8556;52.218;9.884;2022-12-07T11:22:23;4.33;;;1.80;;
16878;SDS011;8556;52.218;9.884;2022-12-07T11:25:02;6.07;;;1.73;;
16878;SDS011;8556;52.218;9.884;2022-12-07T11:27:44;3.70;;;1.77;;
16878;SDS011;8556;52.218;9.884;2022-12-07T11:30:18;7.43;;;2.17;;
16878;SDS011;8556;52.218;9.884;2022-12-07T11:35:41;7.07;;;2.40;;
16878;SDS011;8556;52.218;9.884;2022-12-07T11:38:18;4.23;;;2.43;;
16878;SDS011;8556;52.218;9.884;2022-12-07T11:40:48;6.73;;;2.47;;
16878;SDS011;8556;52.218;9.884;2022-12-07T11:43:21;10.30;;;2.87;;
16878;SDS011;8556;52.218;9.884;2022-12-07T11:45:53;6.60;;;2.70;;
16878;SDS011;8556;52.218;9.884;2022-12-07T11:48:24;7.00;;;3.20;;
16878;SDS011;8556;52.218;9.884;2022-12-07T11:50:59;4.80;;;3.23;;
16878;SDS011;8556;52.218;9.884;2022-12-07T11:53:29;4.63;;;2.83;;
16878;SDS011;8556;52.218;9.884;2022-12-07T11:56:02;5.60;;;3.03;;
16878;SDS011;8556;52.218;9.884;2022-12-07T11:58:45;10.17;;;3.20;;
16878;SDS011;8556;52.218;9.884;2022-12-07T12:01:18;6.47;;;3.37;;
16878;SDS011;8556;52.218;9.884;2022-12-07T12:03:53;8.80;;;3.90;;
16878;SDS011;8556;52.218;9.884;2022-12-07T12:06:28;8.23;;;3.90;;
16878;SDS011;8556;52.218;9.884;2022-12-07T12:08:55;7.50;;;3.60;;
16878;SDS011;8556;52.218;9.884;2022-12-07T12:11:32;3.53;;;2.63;;
16878;SDS011;8556;52.218;9.884;2022-12-07T12:14:22;5.23;;;2.83;;
16878;SDS011;8556;52.218;9.884;2022-12-07T12:17:02;5.57;;;2.40;;
16878;SDS011;8556;52.218;9.884;2022-12-07T12:19:44;6.20;;;2.47;;
16878;SDS011;8556;52.218;9.884;2022-12-07T12:22:28;11.33;;;2.70;;
16878;SDS011;8556;52.218;9.884;2022-12-07T12:25:02;9.33;;;2.80;;
16878;SDS011;8556;52.218;9.884;2022-12-07T12:27:32;5.77;;;2.57;;
16878;SDS011;8556;52.218;9.884;2022-12-07T12:30:02;2.93;;;1.80;;
16878;SDS011;8556;52.218;9.884;2022-12-07T12:32:33;5.07;;;1.90;;
16878;SDS011;8556;52.218;9.884;2022-12-07T12:37:50;7.97;;;2.73;;
16878;SDS011;8556;52.218;9.884;2022-12-07T12:40:40;7.53;;;3.00;;
16878;SDS011;8556;52.218;9.884;2022-12-07T12:46:35;6.07;;;2.83;;
16878;SDS011;8556;52.218;9.884;2022-12-07T12:49:14;8.53;;;2.90;;
16878;SDS011;8556;52.218;9.884;2022-12-07T12:52:00;7.20;;;3.00;;
16878;SDS011;8556;52.218;9.884;2022-12-07T12:54:58;6.43;;;2.60;;
16878;SDS011;8556;52.218;9.884;2022-12-07T12:57:28;4.13;;;1.50;;
16878;SDS011;8556;52.218;9.884;2022-12-07T12:59:56;9.97;;;3.03;;
16878;SDS011;8556;52.218;9.884;2022-12-07T13:02:25;16.50;;;2.20;;
16878;SDS011;8556;52.218;9.884;2022-12-07T13:04:55;3.60;;;1.57;;
16878;SDS011;8556;52.218;9.884;2022-12-07T13:10:35;4.93;;;1.97;;
16878;SDS011;8556;52.218;9.884;2022-12-07T13:13:25;5.03;;;1.60;;
16878;SDS011;8556;52.218;9.884;2022-12-07T13:16:35;9.27;;;1.93;;
16878;SDS011;8556;52.218;9.884;2022-12-07T13:19:23;6.23;;;1.70;;
16878;SDS011;8556;52.218;9.884;2022-12-07T13:22:43;7.73;;;2.63;;
16878;SDS011;8556;52.218;9.884;2022-12-07T13:25:18;4.93;;;1.87;;
16878;SDS011;8556;52.218;9.884;2022-12-07T13:27:48;5.87;;;1.90;;
16878;SDS011;8556;52.218;9.884;2022-12-07T13:30:21;5.07;;;1.70;;
16878;SDS011;8556;52.218;9.884;2022-12-07T13:32:51;6.10;;;2.43;;
16878;SDS011;8556;52.218;9.884;2022-12-07T13:35:33;6.17;;;2.57;;
16878;SDS011;8556;52.218;9.884;2022-12-07T13:38:04;13.50;;;3.90;;
16878;SDS011;8556;52.218;9.884;2022-12-07T13:40:32;9.90;;;3.10;;
16878;SDS011;8556;52.218;9.884;2022-12-07T13:42:59;21.40;;;5.97;;
16878;SDS011;8556;52.218;9.884;2022-12-07T13:45:28;10.40;;;4.43;;
16878;SDS011;8556;52.218;9.884;2022-12-07T13:48:16;7.23;;;2.50;;
16878;SDS011;8556;52.218;9.884;2022-12-07T13:50:53;8.57;;;2.17;;
16878;SDS011;8556;52.218;9.884;2022-12-07T13:53:21;7.80;;;2.30;;
16878;SDS011;8556;52.218;9.884;2022-12-07T13:55:48;6.23;;;3.07;;
16878;SDS011;8556;52.218;9.884;2022-12-07T13:58:15;10.47;;;3.23;;
16878;SDS011;8556;52.218;9.884;2022-12-07T14:00:42;8.97;;;2.60;;
16878;SDS011;8556;52.218;9.884;2022-12-07T14:06:07;7.80;;;2.20;;
16878;SDS011;8556;52.218;9.884;2022-12-07T14:08:40;7.97;;;2.70;;
16878;SDS011;8556;52.218;9.884;2022-12-07T14:11:07;4.20;;;2.43;;
16878;SDS011;8556;52.218;9.884;2022-12-07T14:13:40;6.83;;;2.47;;
16878;SDS011;8556;52.218;9.884;2022-12-07T14:16:24;5.63;;;2.57;;
16878;SDS011;8556;52.218;9.884;2022-12-07T14:18:53;6.00;;;2.20;;
16878;SDS011;8556;52.218;9.884;2022-12-07T14:21:22;7.87;;;2.00;;
16878;SDS011;8556;52.218;9.884;2022-12-07T14:26:37;8.77;;;2.20;;
16878;SDS011;8556;52.218;9.884;2022-12-07T14:29:20;6.07;;;1.97;;
16878;SDS011;8556;52.218;9.884;2022-12-07T14:31:49;6.03;;;2.33;;
16878;SDS011;8556;52.218;9.884;2022-12-07T14:34:19;7.13;;;2.40;;
16878;SDS011;8556;52.218;9.884;2022-12-07T14:36:48;7.50;;;2.50;;
16878;SDS011;8556;52.218;9.884;2022-12-07T14:39:15;4.97;;;2.57;;
16878;SDS011;8556;52.218;9.884;2022-12-07T14:41:42;6.03;;;3.30;;
16878;SDS011;8556;52.218;9.884;2022-12-07T14:44:18;6.37;;;3.47;;
16878;SDS011;8556;52.218;9.884;2022-12-07T14:46:46;9.33;;;3.80;;
16878;SDS011;8556;52.218;9.884;2022-12-07T14:49:14;9.30;;;3.23;;
16878;SDS011;8556;52.218;9.884;2022-12-07T14:51:41;10.20;;;3.73;;
16878;SDS011;8556;52.218;9.884;2022-12-07T14:54:12;13.00;;;4.10;;
16878;SDS011;8556;52.218;9.884;2022-12-07T14:56:42;13.17;;;4.47;;
16878;SDS011;8556;52.218;9.884;2022-12-07T14:59:10;10.27;;;4.57;;
16878;SDS011;8556;52.218;9.884;2022-12-07T15:01:38;7.37;;;4.37;;
16878;SDS011;8556;52.218;9.884;2022-12-07T15:04:05;14.03;;;5.43;;
16878;SDS011;8556;52.218;9.884;2022-12-07T15:06:32;14.43;;;4.70;;
16878;SDS011;8556;52.218;9.884;2022-12-07T15:09:00;8.73;;;3.50;;
16878;SDS011;8556;52.218;9.884;2022-12-07T15:11:29;8.33;;;3.30;;
16878;SDS011;8556;52.218;9.884;2022-12-07T15:13:56;11.30;;;3.70;;
16878;SDS011;8556;52.218;9.884;2022-12-07T15:16:36;10.17;;;3.97;;
16878;SDS011;8556;52.218;9.884;2022-12-07T15:19:05;9.30;;;3.53;;
16878;SDS011;8556;52.218;9.884;2022-12-07T15:21:36;10.00;;;4.17;;
16878;SDS011;8556;52.218;9.884;2022-12-07T15:24:03;11.23;;;6.03;;
16878;SDS011;8556;52.218;9.884;2022-12-07T15:26:32;11.23;;;4.00;;
16878;SDS011;8556;52.218;9.884;2022-12-07T15:28:58;11.60;;;4.30;;
16878;SDS011;8556;52.218;9.884;2022-12-07T15:31:26;13.10;;;4.97;;
16878;SDS011;8556;52.218;9.884;2022-12-07T15:33:53;12.37;;;5.43;;
16878;SDS011;8556;52.218;9.884;2022-12-07T15:36:23;11.87;;;4.70;;
16878;SDS011;8556;52.218;9.884;2022-12-07T15:38:52;9.13;;;3.50;;
16878;SDS011;8556;52.218;9.884;2022-12-07T15:41:20;10.63;;;3.20;;
16878;SDS011;8556;52.218;9.884;2022-12-07T15:43:48;9.60;;;4.00;;
16878;SDS011;8556;52.218;9.884;2022-12-07T15:46:32;7.77;;;2.93;;